sensor_id;sensor_type;location;lat;lon;timestamp;pressure;altitude;pressure_sealevel;temperature;humidity
69766;BME280;57039;48.014;21.384;2023-06-14T00:00:42;100417.56;;;12.29;100.00
69766;BME280;57039;48.014;21.384;2023-06-14T00:01:46;100420.19;;;12.29;100.00
69766;BME280;57039;48.014;21.384;2023-06-14T00:02:50;100422.81;;;12.29;100.00
69766;BME280;57039;48.014;21.384;2023-06-14T00:03:53;100422.81;;;12.29;100.00
69766;BME280;57039;48.014;21.384;2023-06-14T00:04:56;100417.75;;;12.26;100.00
69766;BME280;57039;48.014;21.384;2023-06-14T00:05:59;100416.28;;;12.22;100.00
69766;BME280;57039;48.014;21.384;2023-06-14T00:07:02;100414.00;;;12.30;100.00
69766;BME280;57039;48.014;21.384;2023-06-14T00:08:05;100414.00;;;12.30;100.00
69766;BME280;57039;48.014;21.384;2023-06-14T00:09:11;100414.19;;;12.27;100.00
69766;BME280;57039;48.014;21.384;2023-06-14T00:10:15;100416.84;;;12.27;100.00
69766;BME280;57039;48.014;21.384;2023-06-14T00:11:18;100414.09;;;12.28;100.00
69766;BME280;57039;48.014;21.384;2023-06-14T00:12:21;100417.56;;;12.29;100.00
69766;BME280;57039;48.014;21.384;2023-06-14T00:13:24;100412.22;;;12.30;100.00
69766;BME280;57039;48.014;21.384;2023-06-14T00:14:27;100414.00;;;12.30;100.00
69766;BME280;57039;48.014;21.384;2023-06-14T00:15:33;100413.06;;;12.31;100.00
69766;BME280;57039;48.014;21.384;2023-06-14T00:16:36;100412.28;;;12.29;100.00
69766;BME280;57039;48.014;21.384;2023-06-14T00:17:39;100407.78;;;12.31;100.00
69766;BME280;57039;48.014;21.384;2023-06-14T00:18:43;100412.28;;;12.29;100.00
69766;BME280;57039;48.014;21.384;2023-06-14T00:19:45;100414.09;;;12.28;100.00
69766;BME280;57039;48.014;21.384;2023-06-14T00:20:55;100409.78;;;12.27;100.00
69766;BME280;57039;48.014;21.384;2023-06-14T00:21:58;100414.19;;;12.27;100.00
69766;BME280;57039;48.014;21.384;2023-06-14T00:23:01;100408.19;;;12.25;100.00
69766;BME280;57039;48.014;21.384;2023-06-14T00:24:05;100408.47;;;12.20;100.00
69766;BME280;57039;48.014;21.384;2023-06-14T00:25:08;100410.37;;;12.18;100.00
69766;BME280;57039;48.014;21.384;2023-06-14T00:26:29;100387.16;;;12.10;100.00
69766;BME280;57039;48.014;21.384;2023-06-14T00:27:32;100407.63;;;12.20;100.00
69766;BME280;57039;48.014;21.384;2023-06-14T00:28:35;100392.53;;;12.09;100.00
69766;BME280;57039;48.014;21.384;2023-06-14T00:29:40;100404.34;;;12.16;100.00
69766;BME280;57039;48.014;21.384;2023-06-14T00:30:43;100403.78;;;12.11;100.00
69766;BME280;57039;48.014;21.384;2023-06-14T00:31:49;100406.53;;;12.09;100.00
69766;BME280;57039;48.014;21.384;2023-06-14T00:32:53;100401.06;;;12.13;100.00
69766;BME280;57039;48.014;21.384;2023-06-14T00:33:56;100402.09;;;12.10;100.00
69766;BME280;57039;48.014;21.384;2023-06-14T00:34:59;100408.22;;;12.10;100.00
69766;BME280;57039;48.014;21.384;2023-06-14T00:36:06;100400.31;;;12.10;100.00
69766;BME280;57039;48.014;21.384;2023-06-14T00:37:09;100408.00;;;12.14;100.00
69766;BME280;57039;48.014;21.384;2023-06-14T00:38:12;100402.94;;;12.10;100.00
69766;BME280;57039;48.014;21.384;2023-06-14T00:39:15;100401.28;;;12.09;100.00
69766;BME280;57039;48.014;21.384;2023-06-14T00:40:18;100403.06;;;12.09;100.00
69766;BME280;57039;48.014;21.384;2023-06-14T00:41:21;100405.56;;;12.10;100.00
69766;BME280;57039;48.014;21.384;2023-06-14T00:42:27;100394.34;;;12.08;100.00
69766;BME280;57039;48.014;21.384;2023-06-14T00:43:30;100401.16;;;12.11;100.00
69766;BME280;57039;48.014;21.384;2023-06-14T00:44:33;100397.81;;;12.09;100.00
69766;BME280;57039;48.014;21.384;2023-06-14T00:45:36;100402.50;;;12.04;100.00
69766;BME280;57039;48.014;21.384;2023-06-14T00:46:46;100388.97;;;11.96;100.00
69766;BME280;57039;48.014;21.384;2023-06-14T00:47:50;100400.13;;;11.99;100.00
69766;BME280;57039;48.014;21.384;2023-06-14T00:48:56;100396.78;;;11.97;100.00
69766;BME280;57039;48.014;21.384;2023-06-14T00:50:01;100401.09;;;11.98;100.00
69766;BME280;57039;48.014;21.384;2023-06-14T00:51:04;100401.22;;;11.97;100.00
69766;BME280;57039;48.014;21.384;2023-06-14T00:52:08;100394.03;;;11.99;100.00
69766;BME280;57039;48.014;21.384;2023-06-14T00:53:15;100401.84;;;12.00;100.00
69766;BME280;57039;48.014;21.384;2023-06-14T00:54:19;100403.63;;;12.00;100.00
69766;BME280;57039;48.014;21.384;2023-06-14T00:55:22;100399.31;;;11.99;100.00
69766;BME280;57039;48.014;21.384;2023-06-14T00:56:26;100399.41;;;11.97;100.00
69766;BME280;57039;48.014;21.384;2023-06-14T00:57:30;100394.16;;;11.97;100.00
69766;BME280;57039;48.014;21.384;2023-06-14T00:58:33;100395.28;;;11.93;100.00
69766;BME280;57039;48.014;21.384;2023-06-14T00:59:45;100398.56;;;11.97;100.00
69766;BME280;57039;48.014;21.384;2023-06-14T01:00:50;100396.87;;;11.96;100.00
69766;BME280;57039;48.014;21.384;2023-06-14T01:01:53;100401.00;;;12.00;100.00
69766;BME280;57039;48.014;21.384;2023-06-14T01:02:56;100394.03;;;11.99;100.00
69766;BME280;57039;48.014;21.384;2023-06-14T01:04:00;100393.00;;;12.01;100.00
69766;BME280;57039;48.014;21.384;2023-06-14T01:05:05;100393.66;;;12.05;100.00
69766;BME280;57039;48.014;21.384;2023-06-14T01:06:23;100399.75;;;12.05;100.00
69766;BME280;57039;48.014;21.384;2023-06-14T01:08:14;100404.66;;;12.12;100.00
69766;BME280;57039;48.014;21.384;2023-06-14T01:09:41;100397.22;;;12.18;100.00
69766;BME280;57039;48.014;21.384;2023-06-14T01:12:18;100395.44;;;12.19;100.00
69766;BME280;57039;48.014;21.384;2023-06-14T01:13:34;100395.44;;;12.19;100.00
69766;BME280;57039;48.014;21.384;2023-06-14T01:14:38;100391.41;;;12.13;100.00
69766;BME280;57039;48.014;21.384;2023-06-14T01:15:43;100398.06;;;12.04;100.00
69766;BME280;57039;48.014;21.384;2023-06-14T01:16:47;100388.97;;;11.96;100.00
69766;BME280;57039;48.014;21.384;2023-06-14T01:17:50;100399.22;;;12.00;100.00
69766;BME280;57039;48.014;21.384;2023-06-14T01:18:54;100402.97;;;11.96;100.00
69766;BME280;57039;48.014;21.384;2023-06-14T01:20:01;100396.50;;;11.87;100.00
69766;BME280;57039;48.014;21.384;2023-06-14T01:21:04;100401.06;;;11.84;100.00
69766;BME280;57039;48.014;21.384;2023-06-14T01:22:08;100397.72;;;11.82;100.00
69766;BME280;57039;48.014;21.384;2023-06-14T01:23:11;100395.16;;;11.80;100.00
69766;BME280;57039;48.014;21.384;2023-06-14T01:24:17;100401.25;;;11.81;100.00
69766;BME280;57039;48.014;21.384;2023-06-14T01:25:27;100398.56;;;11.82;100.00
69766;BME280;57039;48.014;21.384;2023-06-14T01:26:30;100391.59;;;11.81;100.00
69766;BME280;57039;48.014;21.384;2023-06-14T01:27:34;100399.41;;;11.83;100.00
69766;BME280;57039;48.014;21.384;2023-06-14T01:28:40;100398.44;;;11.84;100.00
69766;BME280;57039;48.014;21.384;2023-06-14T01:29:43;100395.66;;;11.87;100.00
69766;BME280;57039;48.014;21.384;2023-06-14T01:30:52;100402.81;;;11.85;100.00
69766;BME280;57039;48.014;21.384;2023-06-14T01:31:56;100401.06;;;11.84;100.00
69766;BME280;57039;48.014;21.384;2023-06-14T01:32:59;100394.03;;;11.84;100.00
69766;BME280;57039;48.014;21.384;2023-06-14T01:34:02;100396.59;;;11.86;100.00
69766;BME280;57039;48.014;21.384;2023-06-14T01:35:05;100394.94;;;11.85;100.00
69766;BME280;57039;48.014;21.384;2023-06-14T01:36:12;100401.06;;;11.84;100.00
69766;BME280;57039;48.014;21.384;2023-06-14T01:37:16;100398.41;;;11.85;100.00
69766;BME280;57039;48.014;21.384;2023-06-14T01:38:24;100395.81;;;11.84;100.00
69766;BME280;57039;48.014;21.384;2023-06-14T01:39:28;100404.72;;;11.81;100.00
69766;BME280;57039;48.014;21.384;2023-06-14T01:40:34;100396.00;;;11.81;100.00
69766;BME280;57039;48.014;21.384;2023-06-14T01:41:37;100404.00;;;11.79;100.00
69766;BME280;57039;48.014;21.384;2023-06-14T01:42:41;100403.16;;;11.79;100.00
69766;BME280;57039;48.014;21.384;2023-06-14T01:43:45;100400.63;;;11.77;100.00
69766;BME280;57039;48.014;21.384;2023-06-14T01:44:51;100404.09;;;11.78;100.00
69766;BME280;57039;48.014;21.384;2023-06-14T01:46:03;100405.34;;;11.86;100.00
69766;BME280;57039;48.014;21.384;2023-06-14T01:47:07;100405.34;;;11.86;100.00
69766;BME280;57039;48.014;21.384;2023-06-14T01:48:11;100409.56;;;11.89;100.00
69766;BME280;57039;48.014;21.384;2023-06-14T01:49:14;100413.03;;;11.90;100.00
69766;BME280;57039;48.014;21.384;2023-06-14T01:50:20;100408.06;;;11.85;100.00
69766;BME280;57039;48.014;21.384;2023-06-14T01:51:29;100407.16;;;11.84;100.00
69766;BME280;57039;48.014;21.384;2023-06-14T01:52:32;100408.97;;;11.84;100.00
69766;BME280;57039;48.014;21.384;2023-06-14T01:53:35;100407.28;;;11.83;100.00
69766;BME280;57039;48.014;21.384;2023-06-14T01:54:38;100405.50;;;11.83;100.00
69766;BME280;57039;48.014;21.384;2023-06-14T01:55:45;100407.34;;;11.81;100.00
69766;BME280;57039;48.014;21.384;2023-06-14T01:56:51;100409.53;;;11.75;100.00
69766;BME280;57039;48.014;21.384;2023-06-14T01:57:54;100411.62;;;11.70;100.00
69766;BME280;57039;48.014;21.384;2023-06-14T01:58:57;100406.25;;;11.71;100.00
69766;BME280;57039;48.014;21.384;2023-06-14T02:00:00;100404.47;;;11.72;100.00
69766;BME280;57039;48.014;21.384;2023-06-14T02:01:04;100409.63;;;11.73;100.00
69766;BME280;57039;48.014;21.384;2023-06-14T02:02:08;100412.34;;;11.72;100.00
69766;BME280;57039;48.014;21.384;2023-06-14T02:03:11;100412.44;;;11.70;100.00
69766;BME280;57039;48.014;21.384;2023-06-14T02:04:15;100409.16;;;11.66;100.00
69766;BME280;57039;48.014;21.384;2023-06-14T02:05:18;100409.91;;;11.69;100.00
69766;BME280;57039;48.014;21.384;2023-06-14T02:06:24;100415.28;;;11.67;100.00
69766;BME280;57039;48.014;21.384;2023-06-14T02:07:27;100413.66;;;11.64;100.00
69766;BME280;57039;48.014;21.384;2023-06-14T02:08:29;100406.63;;;11.65;100.00
69766;BME280;57039;48.014;21.384;2023-06-14T02:09:35;100422.12;;;11.70;100.00
69766;BME280;57039;48.014;21.384;2023-06-14T02:10:44;100416.66;;;11.58;100.00
69766;BME280;57039;48.014;21.384;2023-06-14T02:11:47;100418.72;;;11.53;100.00
69766;BME280;57039;48.014;21.384;2023-06-14T02:12:50;100420.59;;;11.51;100.00
69766;BME280;57039;48.014;21.384;2023-06-14T02:13:53;100420.88;;;11.47;100.00
69766;BME280;57039;48.014;21.384;2023-06-14T02:14:55;100426.78;;;11.50;100.00
69766;BME280;57039;48.014;21.384;2023-06-14T02:15:58;100428.28;;;11.40;100.00
69766;BME280;57039;48.014;21.384;2023-06-14T02:17:03;100409.97;;;11.38;100.00
69766;BME280;57039;48.014;21.384;2023-06-14T02:18:06;100408.56;;;11.33;100.00
69766;BME280;57039;48.014;21.384;2023-06-14T02:19:09;100429.41;;;11.50;100.00
69766;BME280;57039;48.014;21.384;2023-06-14T02:20:12;100423.22;;;11.51;100.00
69766;BME280;57039;48.014;21.384;2023-06-14T02:21:18;100429.22;;;11.53;100.00
69766;BME280;57039;48.014;21.384;2023-06-14T02:22:21;100421.94;;;11.58;100.00
69766;BME280;57039;48.014;21.384;2023-06-14T02:23:24;100426.22;;;11.59;100.00
69766;BME280;57039;48.014;21.384;2023-06-14T02:24:27;100434.88;;;11.61;100.00
69766;BME280;57039;48.014;21.384;2023-06-14T02:25:30;100426.16;;;11.61;100.00
69766;BME280;57039;48.014;21.384;2023-06-14T02:26:33;100428.69;;;11.62;100.00
69766;BME280;57039;48.014;21.384;2023-06-14T02:27:36;100428.59;;;11.64;100.00
69766;BME280;57039;48.014;21.384;2023-06-14T02:28:39;100386.72;;;11.32;100.00
69766;BME280;57039;48.014;21.384;2023-06-14T02:29:43;100437.50;;;11.61;100.00
69766;BME280;57039;48.014;21.384;2023-06-14T02:30:46;100435.91;;;11.59;100.00
69766;BME280;57039;48.014;21.384;2023-06-14T02:31:49;100442.09;;;11.58;100.00
69766;BME280;57039;48.014;21.384;2023-06-14T02:32:55;100428.97;;;11.58;100.00
69766;BME280;57039;48.014;21.384;2023-06-14T02:33:58;100440.87;;;11.63;100.00
69766;BME280;57039;48.014;21.384;2023-06-14T02:35:01;100425.00;;;11.51;100.00
69766;BME280;57039;48.014;21.384;2023-06-14T02:36:08;100435.31;;;11.54;100.00
69766;BME280;57039;48.014;21.384;2023-06-14T02:37:11;100440.59;;;11.54;100.00
69766;BME280;57039;48.014;21.384;2023-06-14T02:38:15;100440.13;;;11.47;100.00
69766;BME280;57039;48.014;21.384;2023-06-14T02:39:18;100441.78;;;11.48;100.00
69766;BME280;57039;48.014;21.384;2023-06-14T02:40:23;100438.44;;;11.46;100.00
69766;BME280;57039;48.014;21.384;2023-06-14T02:41:26;100440.19;;;11.46;100.00
69766;BME280;57039;48.014;21.384;2023-06-14T02:42:29;100445.91;;;11.38;100.00
69766;BME280;57039;48.014;21.384;2023-06-14T02:43:32;100450.50;;;11.34;100.00
69766;BME280;57039;48.014;21.384;2023-06-14T02:44:34;100440.84;;;11.35;100.00
69766;BME280;57039;48.014;21.384;2023-06-14T02:45:38;100441.78;;;11.34;100.00
69766;BME280;57039;48.014;21.384;2023-06-14T02:46:41;100441.03;;;11.32;100.00
69766;BME280;57039;48.014;21.384;2023-06-14T02:47:46;100444.59;;;11.31;100.00
69766;BME280;57039;48.014;21.384;2023-06-14T02:48:49;100443.66;;;11.32;100.00
69766;BME280;57039;48.014;21.384;2023-06-14T02:49:52;100440.19;;;11.31;100.00
69766;BME280;57039;48.014;21.384;2023-06-14T02:50:58;100438.66;;;11.27;100.00
69766;BME280;57039;48.014;21.384;2023-06-14T02:52:01;100435.78;;;11.32;100.00
69766;BME280;57039;48.014;21.384;2023-06-14T02:53:05;100441.03;;;11.32;100.00
69766;BME280;57039;48.014;21.384;2023-06-14T02:54:09;100437.56;;;11.31;100.00
69766;BME280;57039;48.014;21.384;2023-06-14T02:55:13;100442.06;;;11.29;100.00
69766;BME280;57039;48.014;21.384;2023-06-14T02:56:16;100434.19;;;11.29;100.00
69766;BME280;57039;48.014;21.384;2023-06-14T02:57:22;100442.06;;;11.29;100.00
69766;BME280;57039;48.014;21.384;2023-06-14T02:58:25;100435.84;;;11.30;100.00
69766;BME280;57039;48.014;21.384;2023-06-14T02:59:28;100435.31;;;11.25;100.00
69766;BME280;57039;48.014;21.384;2023-06-14T03:00:31;100431.91;;;11.23;100.00
69766;BME280;57039;48.014;21.384;2023-06-14T03:01:35;100438.66;;;11.27;100.00
69766;BME280;57039;48.014;21.384;2023-06-14T03:02:41;100434.44;;;11.25;100.00
69766;BME280;57039;48.014;21.384;2023-06-14T03:03:46;100436.16;;;11.26;100.00
69766;BME280;57039;48.014;21.384;2023-06-14T03:04:49;100434.53;;;11.23;100.00
69766;BME280;57039;48.014;21.384;2023-06-14T03:05:58;100432.75;;;11.24;100.00
69766;BME280;57039;48.014;21.384;2023-06-14T03:07:07;100438.84;;;11.24;100.00
69766;BME280;57039;48.014;21.384;2023-06-14T03:08:15;100438.13;;;11.22;100.00
69766;BME280;57039;48.014;21.384;2023-06-14T03:09:21;100433.59;;;11.24;100.00
69766;BME280;57039;48.014;21.384;2023-06-14T03:10:24;100437.81;;;11.27;100.00
69766;BME280;57039;48.014;21.384;2023-06-14T03:11:34;100433.41;;;11.27;100.00
69766;BME280;57039;48.014;21.384;2023-06-14T03:12:38;100430.78;;;11.27;100.00
69766;BME280;57039;48.014;21.384;2023-06-14T03:13:42;100441.97;;;11.31;100.00
69766;BME280;57039;48.014;21.384;2023-06-14T03:14:46;100435.78;;;11.32;100.00
69766;BME280;57039;48.014;21.384;2023-06-14T03:15:52;100441.69;;;11.35;100.00
69766;BME280;57039;48.014;21.384;2023-06-14T03:16:55;100442.62;;;11.34;100.00
69766;BME280;57039;48.014;21.384;2023-06-14T03:17:59;100438.13;;;11.36;100.00
69766;BME280;57039;48.014;21.384;2023-06-14T03:19:02;100438.62;;;11.43;100.00
69766;BME280;57039;48.014;21.384;2023-06-14T03:20:06;100444.06;;;11.40;100.00
69766;BME280;57039;48.014;21.384;2023-06-14T03:21:09;100445.56;;;11.44;100.00
69766;BME280;57039;48.014;21.384;2023-06-14T03:22:14;100444.78;;;11.42;100.00
69766;BME280;57039;48.014;21.384;2023-06-14T03:23:17;100451.94;;;11.40;100.00
69766;BME280;57039;48.014;21.384;2023-06-14T03:24:20;100448.38;;;11.41;100.00
69766;BME280;57039;48.014;21.384;2023-06-14T03:25:23;100453.69;;;11.39;100.00
69766;BME280;57039;48.014;21.384;2023-06-14T03:26:26;100451.00;;;11.41;100.00
69766;BME280;57039;48.014;21.384;2023-06-14T03:27:30;100448.19;;;11.44;100.00
69766;BME280;57039;48.014;21.384;2023-06-14T03:28:34;100447.22;;;11.45;100.00
69766;BME280;57039;48.014;21.384;2023-06-14T03:29:37;100404.41;;;11.14;100.00
69766;BME280;57039;48.014;21.384;2023-06-14T03:30:40;100445.91;;;11.38;100.00
69766;BME280;57039;48.014;21.384;2023-06-14T03:32:02;100444.97;;;11.39;100.00
69766;BME280;57039;48.014;21.384;2023-06-14T03:33:07;100450.63;;;11.47;100.00
69766;BME280;57039;48.014;21.384;2023-06-14T03:34:12;100456.28;;;11.55;100.00
69766;BME280;57039;48.014;21.384;2023-06-14T03:35:14;100459.16;;;11.51;100.00
69766;BME280;57039;48.014;21.384;2023-06-14T03:36:20;100454.00;;;11.63;100.00
69766;BME280;57039;48.014;21.384;2023-06-14T03:37:23;100459.75;;;11.70;100.00
69766;BME280;57039;48.014;21.384;2023-06-14T03:38:26;100454.84;;;11.78;100.00
69766;BME280;57039;48.014;21.384;2023-06-14T03:39:29;100455.53;;;11.82;100.00
69766;BME280;57039;48.014;21.384;2023-06-14T03:40:34;100451.81;;;11.86;100.00
69766;BME280;57039;48.014;21.384;2023-06-14T03:41:37;100450.78;;;11.88;100.00
69766;BME280;57039;48.014;21.384;2023-06-14T03:42:40;100453.28;;;11.90;100.00
69766;BME280;57039;48.014;21.384;2023-06-14T03:43:43;100461.09;;;11.92;100.00
69766;BME280;57039;48.014;21.384;2023-06-14T03:44:45;100453.87;;;11.95;100.00
69766;BME280;57039;48.014;21.384;2023-06-14T03:45:48;100458.19;;;11.96;100.00
69766;BME280;57039;48.014;21.384;2023-06-14T03:46:51;100434.34;;;11.85;100.00
69766;BME280;57039;48.014;21.384;2023-06-14T03:47:54;100456.12;;;12.01;100.00
69766;BME280;57039;48.014;21.384;2023-06-14T03:48:57;100457.53;;;12.07;100.00
69766;BME280;57039;48.014;21.384;2023-06-14T03:50:04;100457.13;;;12.13;100.00
69766;BME280;57039;48.014;21.384;2023-06-14T03:51:08;100451.69;;;12.16;100.00
69766;BME280;57039;48.014;21.384;2023-06-14T03:52:12;100446.72;;;12.12;100.00
69766;BME280;57039;48.014;21.384;2023-06-14T03:53:17;100452.91;;;12.10;100.00
69766;BME280;57039;48.014;21.384;2023-06-14T03:54:20;100455.72;;;12.07;100.00
69766;BME280;57039;48.014;21.384;2023-06-14T03:55:27;100455.94;;;12.04;100.00
69766;BME280;57039;48.014;21.384;2023-06-14T03:56:33;100452.19;;;12.08;100.00
69766;BME280;57039;48.014;21.384;2023-06-14T03:57:40;100456.75;;;12.05;100.00
69766;BME280;57039;48.014;21.384;2023-06-14T03:58:48;100450.84;;;12.01;100.00
69766;BME280;57039;48.014;21.384;2023-06-14T03:59:51;100463.25;;;11.99;100.00
69766;BME280;57039;48.014;21.384;2023-06-14T04:00:54;100460.53;;;12.01;100.00
69766;BME280;57039;48.014;21.384;2023-06-14T04:01:59;100462.12;;;12.03;100.00
69766;BME280;57039;48.014;21.384;2023-06-14T04:03:01;100466.44;;;12.04;100.00
69766;BME280;57039;48.014;21.384;2023-06-14T04:04:06;100459.97;;;12.10;100.00
69766;BME280;57039;48.014;21.384;2023-06-14T04:05:10;100465.03;;;12.13;100.00
69766;BME280;57039;48.014;21.384;2023-06-14T04:06:13;100459.88;;;12.12;100.00
69766;BME280;57039;48.014;21.384;2023-06-14T04:07:25;100461.06;;;12.20;100.00
69766;BME280;57039;48.014;21.384;2023-06-14T04:08:31;100462.84;;;12.34;100.00
69766;BME280;57039;48.014;21.384;2023-06-14T04:09:33;100465.09;;;12.26;100.00
69766;BME280;57039;48.014;21.384;2023-06-14T04:10:38;100462.84;;;12.34;100.00
69766;BME280;57039;48.014;21.384;2023-06-14T04:11:41;100462.25;;;12.43;100.00
69766;BME280;57039;48.014;21.384;2023-06-14T04:12:44;100458.03;;;12.41;100.00
69766;BME280;57039;48.014;21.384;2023-06-14T04:13:50;100469.69;;;12.51;100.00
69766;BME280;57039;48.014;21.384;2023-06-14T04:14:58;100469.16;;;12.59;100.00
69766;BME280;57039;48.014;21.384;2023-06-14T04:16:17;100468.25;;;12.60;100.00
69766;BME280;57039;48.014;21.384;2023-06-14T04:17:19;100466.72;;;12.55;100.00
69766;BME280;57039;48.014;21.384;2023-06-14T04:18:23;100464.47;;;12.64;100.00
69766;BME280;57039;48.014;21.384;2023-06-14T04:19:26;100461.47;;;12.55;100.00
69766;BME280;57039;48.014;21.384;2023-06-14T04:20:29;100466.12;;;12.65;100.00
69766;BME280;57039;48.014;21.384;2023-06-14T04:21:36;100471.41;;;12.65;100.00
69766;BME280;57039;48.014;21.384;2023-06-14T04:22:41;100466.09;;;12.79;100.00
69766;BME280;57039;48.014;21.384;2023-06-14T04:23:46;100468.44;;;12.84;100.00
69766;BME280;57039;48.014;21.384;2023-06-14T04:24:49;100458.56;;;12.87;100.00
69766;BME280;57039;48.014;21.384;2023-06-14T04:26:06;100462.91;;;13.01;100.00
69766;BME280;57039;48.014;21.384;2023-06-14T04:27:10;100463.78;;;13.14;100.00
69766;BME280;57039;48.014;21.384;2023-06-14T04:28:13;100460.37;;;13.27;100.00
69766;BME280;57039;48.014;21.384;2023-06-14T04:29:18;100468.41;;;13.38;100.00
69766;BME280;57039;48.014;21.384;2023-06-14T04:30:22;100457.97;;;13.49;100.00
69766;BME280;57039;48.014;21.384;2023-06-14T04:31:29;100461.03;;;13.56;100.00
69766;BME280;57039;48.014;21.384;2023-06-14T04:32:36;100456.06;;;13.64;100.00
69766;BME280;57039;48.014;21.384;2023-06-14T04:33:46;100460.72;;;13.73;100.00
69766;BME280;57039;48.014;21.384;2023-06-14T04:34:51;100463.66;;;13.81;100.00
69766;BME280;57039;48.014;21.384;2023-06-14T04:36:00;100463.00;;;13.90;100.00
69766;BME280;57039;48.014;21.384;2023-06-14T04:37:03;100465.16;;;13.85;100.00
69766;BME280;57039;48.014;21.384;2023-06-14T04:38:13;100461.13;;;13.92;100.00
69766;BME280;57039;48.014;21.384;2023-06-14T04:39:16;100471.16;;;14.00;100.00
69766;BME280;57039;48.014;21.384;2023-06-14T04:40:22;100462.81;;;14.06;100.00
69766;BME280;57039;48.014;21.384;2023-06-14T04:41:24;100469.22;;;14.02;100.00
69766;BME280;57039;48.014;21.384;2023-06-14T04:42:33;100465.09;;;14.11;100.00
69766;BME280;57039;48.014;21.384;2023-06-14T04:43:40;100464.25;;;14.10;100.00
69766;BME280;57039;48.014;21.384;2023-06-14T04:44:45;100458.53;;;14.16;100.00
69766;BME280;57039;48.014;21.384;2023-06-14T04:45:54;100456.66;;;14.19;100.00
69766;BME280;57039;48.014;21.384;2023-06-14T04:46:59;100463.81;;;14.16;100.00
69766;BME280;57039;48.014;21.384;2023-06-14T04:48:02;100467.72;;;14.11;100.00
69766;BME280;57039;48.014;21.384;2023-06-14T04:49:15;100472.47;;;14.06;100.00
69766;BME280;57039;48.014;21.384;2023-06-14T04:50:19;100472.28;;;13.96;100.00
69766;BME280;57039;48.014;21.384;2023-06-14T04:51:23;100472.81;;;14.01;100.00
69766;BME280;57039;48.014;21.384;2023-06-14T04:52:32;100467.94;;;14.08;100.00
69766;BME280;57039;48.014;21.384;2023-06-14T04:53:40;100471.75;;;14.16;100.00
69766;BME280;57039;48.014;21.384;2023-06-14T04:54:43;100428.91;;;14.13;100.00
69766;BME280;57039;48.014;21.384;2023-06-14T04:55:46;100470.34;;;14.36;100.00
69766;BME280;57039;48.014;21.384;2023-06-14T04:56:56;100468.09;;;14.43;100.00
69766;BME280;57039;48.014;21.384;2023-06-14T04:58:06;100472.13;;;14.36;100.00
69766;BME280;57039;48.014;21.384;2023-06-14T04:59:09;100474.44;;;14.41;100.00
69766;BME280;57039;48.014;21.384;2023-06-14T05:00:14;100468.38;;;14.64;100.00
69766;BME280;57039;48.014;21.384;2023-06-14T05:01:24;100472.47;;;14.92;100.00
69766;BME280;57039;48.014;21.384;2023-06-14T05:02:27;100475.06;;;15.16;100.00
69766;BME280;57039;48.014;21.384;2023-06-14T05:03:31;100469.31;;;15.22;100.00
69766;BME280;57039;48.014;21.384;2023-06-14T05:04:42;100464.22;;;15.32;100.00
69766;BME280;57039;48.014;21.384;2023-06-14T05:05:50;100471.06;;;15.46;100.00
69766;BME280;57039;48.014;21.384;2023-06-14T05:06:55;100467.16;;;15.63;100.00
69766;BME280;57039;48.014;21.384;2023-06-14T05:07:59;100470.09;;;15.71;100.00
69766;BME280;57039;48.014;21.384;2023-06-14T05:09:11;100477.13;;;15.59;100.00
69766;BME280;57039;48.014;21.384;2023-06-14T05:10:14;100475.44;;;15.58;100.00
69766;BME280;57039;48.014;21.384;2023-06-14T05:11:17;100468.00;;;15.63;100.00
69766;BME280;57039;48.014;21.384;2023-06-14T05:12:19;100478.06;;;15.58;100.00
69766;BME280;57039;48.014;21.384;2023-06-14T05:13:32;100466.59;;;15.70;100.00
69766;BME280;57039;48.014;21.384;2023-06-14T05:14:35;100471.66;;;15.85;100.00
69766;BME280;57039;48.014;21.384;2023-06-14T05:15:38;100472.38;;;15.87;100.00
69766;BME280;57039;48.014;21.384;2023-06-14T05:16:42;100472.88;;;15.92;100.00
69766;BME280;57039;48.014;21.384;2023-06-14T05:17:46;100480.69;;;15.93;100.00
69766;BME280;57039;48.014;21.384;2023-06-14T05:18:56;100475.25;;;16.06;100.00
69766;BME280;57039;48.014;21.384;2023-06-14T05:19:59;100482.38;;;16.17;100.00
69766;BME280;57039;48.014;21.384;2023-06-14T05:21:01;100476.38;;;16.04;100.00
69766;BME280;57039;48.014;21.384;2023-06-14T05:22:04;100475.38;;;15.93;100.00
69766;BME280;57039;48.014;21.384;2023-06-14T05:23:07;100475.75;;;16.23;100.00
69766;BME280;57039;48.014;21.384;2023-06-14T05:24:10;100476.22;;;16.28;100.00
69766;BME280;57039;48.014;21.384;2023-06-14T05:25:22;100478.97;;;16.37;100.00
69766;BME280;57039;48.014;21.384;2023-06-14T05:26:25;100476.41;;;16.58;100.00
69766;BME280;57039;48.014;21.384;2023-06-14T05:27:31;100483.88;;;16.53;100.00
69766;BME280;57039;48.014;21.384;2023-06-14T05:28:33;100486.03;;;16.59;100.00
69766;BME280;57039;48.014;21.384;2023-06-14T05:29:36;100486.75;;;16.73;100.00
69766;BME280;57039;48.014;21.384;2023-06-14T05:30:40;100480.69;;;16.93;100.00
69766;BME280;57039;48.014;21.384;2023-06-14T05:31:43;100487.06;;;16.91;100.00
69766;BME280;57039;48.014;21.384;2023-06-14T05:32:46;100487.91;;;16.91;100.00